sensor_id;sensor_type;location;lat;lon;timestamp;temperature;humidity
18577;DHT22;9418;52.694;13.294;2023-04-22T00:01:21;9.40;99.90
18577;DHT22;9418;52.694;13.294;2023-04-22T00:03:49;9.40;99.90
18577;DHT22;9418;52.694;13.294;2023-04-22T00:06:16;9.40;99.90
18577;DHT22;9418;52.694;13.294;2023-04-22T00:08:44;9.40;99.90
18577;DHT22;9418;52.694;13.294;2023-04-22T00:11:10;9.40;99.90
18577;DHT22;9418;52.694;13.294;2023-04-22T00:13:37;9.40;99.90
18577;DHT22;9418;52.694;13.294;2023-04-22T00:16:04;9.40;99.90
18577;DHT22;9418;52.694;13.294;2023-04-22T00:18:33;9.40;99.90
18577;DHT22;9418;52.694;13.294;2023-04-22T00:20:59;9.30;99.90
18577;DHT22;9418;52.694;13.294;2023-04-22T00:23:26;9.20;99.90
18577;DHT22;9418;52.694;13.294;2023-04-22T00:25:54;9.20;99.90
18577;DHT22;9418;52.694;13.294;2023-04-22T00:28:21;9.20;99.90
18577;DHT22;9418;52.694;13.294;2023-04-22T00:30:47;9.20;99.90
18577;DHT22;9418;52.694;13.294;2023-04-22T00:33:14;9.10;99.90
18577;DHT22;9418;52.694;13.294;2023-04-22T00:35:40;9.00;99.90
18577;DHT22;9418;52.694;13.294;2023-04-22T00:38:07;9.00;99.90
18577;DHT22;9418;52.694;13.294;2023-04-22T00:40:34;9.00;99.90
18577;DHT22;9418;52.694;13.294;2023-04-22T00:43:02;9.00;99.90
18577;DHT22;9418;52.694;13.294;2023-04-22T00:45:29;9.10;99.90
18577;DHT22;9418;52.694;13.294;2023-04-22T00:47:56;9.00;99.90
18577;DHT22;9418;52.694;13.294;2023-04-22T00:50:23;9.10;99.90
18577;DHT22;9418;52.694;13.294;2023-04-22T00:52:50;9.10;99.90
18577;DHT22;9418;52.694;13.294;2023-04-22T00:55:16;9.20;99.90
18577;DHT22;9418;52.694;13.294;2023-04-22T00:57:43;9.20;99.90
18577;DHT22;9418;52.694;13.294;2023-04-22T01:00:12;9.20;99.90
18577;DHT22;9418;52.694;13.294;2023-04-22T01:02:39;9.10;99.90
18577;DHT22;9418;52.694;13.294;2023-04-22T01:05:06;9.10;99.90
18577;DHT22;9418;52.694;13.294;2023-04-22T01:07:34;9.10;99.90
18577;DHT22;9418;52.694;13.294;2023-04-22T01:10:01;9.10;99.90
18577;DHT22;9418;52.694;13.294;2023-04-22T01:12:27;9.00;99.90
18577;DHT22;9418;52.694;13.294;2023-04-22T01:14:55;9.00;99.90
18577;DHT22;9418;52.694;13.294;2023-04-22T01:17:23;8.90;99.90
18577;DHT22;9418;52.694;13.294;2023-04-22T01:19:50;8.90;99.90
18577;DHT22;9418;52.694;13.294;2023-04-22T01:22:17;8.90;99.90
18577;DHT22;9418;52.694;13.294;2023-04-22T01:24:45;8.90;99.90
18577;DHT22;9418;52.694;13.294;2023-04-22T01:27:12;8.90;99.90
18577;DHT22;9418;52.694;13.294;2023-04-22T01:29:38;9.00;99.90
18577;DHT22;9418;52.694;13.294;2023-04-22T01:32:05;9.10;99.90
18577;DHT22;9418;52.694;13.294;2023-04-22T01:34:32;9.10;99.90
18577;DHT22;9418;52.694;13.294;2023-04-22T01:36:58;9.30;99.90
18577;DHT22;9418;52.694;13.294;2023-04-22T01:39:25;9.40;99.90
18577;DHT22;9418;52.694;13.294;2023-04-22T01:41:54;9.60;99.90
18577;DHT22;9418;52.694;13.294;2023-04-22T01:44:21;9.70;99.90
18577;DHT22;9418;52.694;13.294;2023-04-22T01:46:47;9.70;99.90
18577;DHT22;9418;52.694;13.294;2023-04-22T01:49:14;9.70;99.90
18577;DHT22;9418;52.694;13.294;2023-04-22T01:51:40;9.50;99.90
18577;DHT22;9418;52.694;13.294;2023-04-22T01:54:08;9.50;99.90
18577;DHT22;9418;52.694;13.294;2023-04-22T01:56:35;9.50;99.90
18577;DHT22;9418;52.694;13.294;2023-04-22T01:59:04;9.50;99.90
18577;DHT22;9418;52.694;13.294;2023-04-22T02:01:31;9.50;99.90
18577;DHT22;9418;52.694;13.294;2023-04-22T02:03:57;9.60;99.90
18577;DHT22;9418;52.694;13.294;2023-04-22T02:06:24;9.60;99.90
18577;DHT22;9418;52.694;13.294;2023-04-22T02:08:51;9.60;99.90
18577;DHT22;9418;52.694;13.294;2023-04-22T02:11:18;9.60;99.90
18577;DHT22;9418;52.694;13.294;2023-04-22T02:13:45;9.50;99.90
18577;DHT22;9418;52.694;13.294;2023-04-22T02:16:13;9.40;99.90
18577;DHT22;9418;52.694;13.294;2023-04-22T02:18:40;9.30;99.90
18577;DHT22;9418;52.694;13.294;2023-04-22T02:21:06;9.10;99.90
18577;DHT22;9418;52.694;13.294;2023-04-22T02:23:33;9.10;99.90
18577;DHT22;9418;52.694;13.294;2023-04-22T02:26:00;9.00;99.90
18577;DHT22;9418;52.694;13.294;2023-04-22T02:28:28;8.90;99.90
18577;DHT22;9418;52.694;13.294;2023-04-22T02:30:54;8.80;99.90
18577;DHT22;9418;52.694;13.294;2023-04-22T02:33:22;8.70;99.90
18577;DHT22;9418;52.694;13.294;2023-04-22T02:35:49;8.60;99.90
18577;DHT22;9418;52.694;13.294;2023-04-22T02:38:15;8.50;91.10
18577;DHT22;9418;52.694;13.294;2023-04-22T02:40:42;8.50;73.80
18577;DHT22;9418;52.694;13.294;2023-04-22T02:43:09;8.40;68.40
18577;DHT22;9418;52.694;13.294;2023-04-22T02:45:35;8.30;64.10
18577;DHT22;9418;52.694;13.294;2023-04-22T02:48:02;8.30;63.20
18577;DHT22;9418;52.694;13.294;2023-04-22T02:50:30;8.30;64.50
18577;DHT22;9418;52.694;13.294;2023-04-22T02:52:56;8.30;68.90
18577;DHT22;9418;52.694;13.294;2023-04-22T02:55:23;8.40;77.60
18577;DHT22;9418;52.694;13.294;2023-04-22T02:57:50;8.50;94.90
18577;DHT22;9418;52.694;13.294;2023-04-22T03:00:16;8.50;83.90
18577;DHT22;9418;52.694;13.294;2023-04-22T03:02:43;8.50;87.60
18577;DHT22;9418;52.694;13.294;2023-04-22T03:05:10;8.50;85.60
18577;DHT22;9418;52.694;13.294;2023-04-22T03:07:37;8.50;88.00
18577;DHT22;9418;52.694;13.294;2023-04-22T03:10:05;8.60;92.70
18577;DHT22;9418;52.694;13.294;2023-04-22T03:12:32;8.60;94.00
18577;DHT22;9418;52.694;13.294;2023-04-22T03:14:59;8.60;99.50
18577;DHT22;9418;52.694;13.294;2023-04-22T03:17:25;8.50;95.40
18577;DHT22;9418;52.694;13.294;2023-04-22T03:19:52;8.60;98.40
18577;DHT22;9418;52.694;13.294;2023-04-22T03:22:18;8.50;97.10
18577;DHT22;9418;52.694;13.294;2023-04-22T03:24:46;8.60;99.90
18577;DHT22;9418;52.694;13.294;2023-04-22T03:27:13;8.60;99.90
18577;DHT22;9418;52.694;13.294;2023-04-22T03:29:39;8.60;99.90
18577;DHT22;9418;52.694;13.294;2023-04-22T03:32:06;8.60;99.90
18577;DHT22;9418;52.694;13.294;2023-04-22T03:34:32;8.50;99.60
18577;DHT22;9418;52.694;13.294;2023-04-22T03:36:59;8.60;99.90
18577;DHT22;9418;52.694;13.294;2023-04-22T03:39:26;8.60;99.90
18577;DHT22;9418;52.694;13.294;2023-04-22T03:41:53;8.60;99.90
18577;DHT22;9418;52.694;13.294;2023-04-22T03:44:20;8.60;99.90
18577;DHT22;9418;52.694;13.294;2023-04-22T03:46:47;8.70;99.90
18577;DHT22;9418;52.694;13.294;2023-04-22T03:49:13;8.60;99.90
18577;DHT22;9418;52.694;13.294;2023-04-22T03:51:40;8.60;99.90
18577;DHT22;9418;52.694;13.294;2023-04-22T03:54:06;8.50;97.80
18577;DHT22;9418;52.694;13.294;2023-04-22T03:56:33;8.40;96.80
18577;DHT22;9418;52.694;13.294;2023-04-22T03:59:02;8.40;82.20
18577;DHT22;9418;52.694;13.294;2023-04-22T04:01:28;8.30;85.80
18577;DHT22;9418;52.694;13.294;2023-04-22T04:03:55;8.30;85.50
18577;DHT22;9418;52.694;13.294;2023-04-22T04:06:22;8.30;79.30
18577;DHT22;9418;52.694;13.294;2023-04-22T04:08:48;8.20;72.90
18577;DHT22;9418;52.694;13.294;2023-04-22T04:11:15;8.10;67.70
18577;DHT22;9418;52.694;13.294;2023-04-22T04:13:41;8.10;69.20
18577;DHT22;9418;52.694;13.294;2023-04-22T04:16:09;8.20;72.60
18577;DHT22;9418;52.694;13.294;2023-04-22T04:18:37;8.20;70.70
18577;DHT22;9418;52.694;13.294;2023-04-22T04:21:04;8.20;71.50
18577;DHT22;9418;52.694;13.294;2023-04-22T04:23:30;8.30;79.30
18577;DHT22;9418;52.694;13.294;2023-04-22T04:25:57;8.40;73.30
18577;DHT22;9418;52.694;13.294;2023-04-22T04:28:25;8.40;73.80
18577;DHT22;9418;52.694;13.294;2023-04-22T04:30:54;8.40;88.80
18577;DHT22;9418;52.694;13.294;2023-04-22T04:33:22;8.50;90.70
18577;DHT22;9418;52.694;13.294;2023-04-22T04:35:49;8.60;86.20
18577;DHT22;9418;52.694;13.294;2023-04-22T04:38:15;8.60;87.10
18577;DHT22;9418;52.694;13.294;2023-04-22T04:40:42;8.70;95.50
18577;DHT22;9418;52.694;13.294;2023-04-22T04:43:10;8.70;97.40
18577;DHT22;9418;52.694;13.294;2023-04-22T04:45:37;8.80;97.30
18577;DHT22;9418;52.694;13.294;2023-04-22T04:48:04;8.90;94.20
18577;DHT22;9418;52.694;13.294;2023-04-22T04:50:33;8.90;95.90
18577;DHT22;9418;52.694;13.294;2023-04-22T04:53:00;8.90;89.60
18577;DHT22;9418;52.694;13.294;2023-04-22T04:55:26;8.90;98.50
18577;DHT22;9418;52.694;13.294;2023-04-22T04:57:53;9.00;98.10
18577;DHT22;9418;52.694;13.294;2023-04-22T05:00:19;9.10;99.90
18577;DHT22;9418;52.694;13.294;2023-04-22T05:02:46;9.20;99.90
18577;DHT22;9418;52.694;13.294;2023-04-22T05:05:13;9.30;99.90
18577;DHT22;9418;52.694;13.294;2023-04-22T05:07:40;9.40;99.90
18577;DHT22;9418;52.694;13.294;2023-04-22T05:10:08;9.60;99.90
18577;DHT22;9418;52.694;13.294;2023-04-22T05:12:35;9.70;99.90
18577;DHT22;9418;52.694;13.294;2023-04-22T05:15:02;9.80;99.90
18577;DHT22;9418;52.694;13.294;2023-04-22T05:17:29;9.90;99.90
18577;DHT22;9418;52.694;13.294;2023-04-22T05:19:55;10.00;99.90
18577;DHT22;9418;52.694;13.294;2023-04-22T05:22:22;10.20;99.90
18577;DHT22;9418;52.694;13.294;2023-04-22T05:24:50;10.30;99.90
18577;DHT22;9418;52.694;13.294;2023-04-22T05:27:17;10.40;99.90
18577;DHT22;9418;52.694;13.294;2023-04-22T05:29:43;10.60;99.90
18577;DHT22;9418;52.694;13.294;2023-04-22T05:32:10;10.70;99.90
18577;DHT22;9418;52.694;13.294;2023-04-22T05:34:36;10.70;1.40
18577;DHT22;9418;52.694;13.294;2023-04-22T05:37:03;10.80;99.90
18577;DHT22;9418;52.694;13.294;2023-04-22T05:39:30;10.90;99.90
18577;DHT22;9418;52.694;13.294;2023-04-22T05:41:58;10.90;99.90
18577;DHT22;9418;52.694;13.294;2023-04-22T05:44:25;10.90;99.90
18577;DHT22;9418;52.694;13.294;2023-04-22T05:46:51;11.00;99.90
18577;DHT22;9418;52.694;13.294;2023-04-22T05:49:18;11.10;99.90
18577;DHT22;9418;52.694;13.294;2023-04-22T05:51:44;11.20;99.90
18577;DHT22;9418;52.694;13.294;2023-04-22T05:54:11;11.20;99.90
18577;DHT22;9418;52.694;13.294;2023-04-22T05:56:38;11.30;99.90
18577;DHT22;9418;52.694;13.294;2023-04-22T05:59:06;11.40;99.90
18577;DHT22;9418;52.694;13.294;2023-04-22T06:01:32;11.50;99.90
18577;DHT22;9418;52.694;13.294;2023-04-22T06:03:59;11.60;99.90
18577;DHT22;9418;52.694;13.294;2023-04-22T06:06:26;11.70;99.90
18577;DHT22;9418;52.694;13.294;2023-04-22T06:08:52;11.70;99.90
18577;DHT22;9418;52.694;13.294;2023-04-22T06:11:19;11.80;99.90
18577;DHT22;9418;52.694;13.294;2023-04-22T06:13:46;11.90;99.90
18577;DHT22;9418;52.694;13.294;2023-04-22T06:16:14;12.00;99.90
18577;DHT22;9418;52.694;13.294;2023-04-22T06:18:41;12.00;99.90
18577;DHT22;9418;52.694;13.294;2023-04-22T06:21:08;12.20;99.90
18577;DHT22;9418;52.694;13.294;2023-04-22T06:23:35;12.40;99.90
18577;DHT22;9418;52.694;13.294;2023-04-22T06:26:02;12.40;99.90
18577;DHT22;9418;52.694;13.294;2023-04-22T06:28:30;12.40;99.90
18577;DHT22;9418;52.694;13.294;2023-04-22T06:30:56;12.60;99.90
18577;DHT22;9418;52.694;13.294;2023-04-22T06:33:24;12.70;99.90
18577;DHT22;9418;52.694;13.294;2023-04-22T06:35:51;12.80;99.90
18577;DHT22;9418;52.694;13.294;2023-04-22T06:38:17;12.80;99.90
18577;DHT22;9418;52.694;13.294;2023-04-22T06:40:44;12.90;99.90
18577;DHT22;9418;52.694;13.294;2023-04-22T06:43:11;12.90;99.90
18577;DHT22;9418;52.694;13.294;2023-04-22T06:45:38;13.20;99.90
18577;DHT22;9418;52.694;13.294;2023-04-22T06:48:04;13.50;99.90
18577;DHT22;9418;52.694;13.294;2023-04-22T06:50:32;13.90;99.90
18577;DHT22;9418;52.694;13.294;2023-04-22T06:52:59;14.20;99.90
18577;DHT22;9418;52.694;13.294;2023-04-22T06:55:25;14.10;99.90
18577;DHT22;9418;52.694;13.294;2023-04-22T06:57:52;14.20;99.90
18577;DHT22;9418;52.694;13.294;2023-04-22T07:00:18;14.20;99.90
18577;DHT22;9418;52.694;13.294;2023-04-22T07:02:45;14.30;99.90
18577;DHT22;9418;52.694;13.294;2023-04-22T07:05:12;14.30;99.90
18577;DHT22;9418;52.694;13.294;2023-04-22T07:07:39;14.40;99.90
18577;DHT22;9418;52.694;13.294;2023-04-22T07:10:07;14.50;99.90
18577;DHT22;9418;52.694;13.294;2023-04-22T07:12:33;14.50;99.90
18577;DHT22;9418;52.694;13.294;2023-04-22T07:15:00;14.70;99.90
18577;DHT22;9418;52.694;13.294;2023-04-22T07:17:26;14.80;99.90
18577;DHT22;9418;52.694;13.294;2023-04-22T07:19:53;14.80;99.90
18577;DHT22;9418;52.694;13.294;2023-04-22T07:22:20;14.90;99.90
18577;DHT22;9418;52.694;13.294;2023-04-22T07:24:48;14.70;99.90
18577;DHT22;9418;52.694;13.294;2023-04-22T07:27:16;14.80;99.90
18577;DHT22;9418;52.694;13.294;2023-04-22T07:29:43;14.90;99.90
18577;DHT22;9418;52.694;13.294;2023-04-22T07:32:09;15.10;99.90
18577;DHT22;9418;52.694;13.294;2023-04-22T07:34:36;15.10;99.90
18577;DHT22;9418;52.694;13.294;2023-04-22T07:37:07;15.10;99.90
18577;DHT22;9418;52.694;13.294;2023-04-22T07:39:36;15.20;99.90
18577;DHT22;9418;52.694;13.294;2023-04-22T07:42:04;15.10;99.90
18577;DHT22;9418;52.694;13.294;2023-04-22T07:44:31;15.40;99.90
18577;DHT22;9418;52.694;13.294;2023-04-22T07:46:58;15.70;99.90
18577;DHT22;9418;52.694;13.294;2023-04-22T07:49:25;16.30;99.90
18577;DHT22;9418;52.694;13.294;2023-04-22T07:51:51;16.30;99.90
18577;DHT22;9418;52.694;13.294;2023-04-22T07:54:18;16.20;99.90
18577;DHT22;9418;52.694;13.294;2023-04-22T07:56:45;16.10;99.90
18577;DHT22;9418;52.694;13.294;2023-04-22T07:59:13;16.30;99.90
18577;DHT22;9418;52.694;13.294;2023-04-22T08:01:39;16.70;99.90
18577;DHT22;9418;52.694;13.294;2023-04-22T08:04:06;16.70;99.90
18577;DHT22;9418;52.694;13.294;2023-04-22T08:06:33;17.30;99.90
18577;DHT22;9418;52.694;13.294;2023-04-22T08:08:59;17.60;99.90
18577;DHT22;9418;52.694;13.294;2023-04-22T08:11:26;17.70;99.90
18577;DHT22;9418;52.694;13.294;2023-04-22T08:13:52;17.60;99.90
18577;DHT22;9418;52.694;13.294;2023-04-22T08:16:20;17.50;99.90
18577;DHT22;9418;52.694;13.294;2023-04-22T08:18:47;17.20;99.90
18577;DHT22;9418;52.694;13.294;2023-04-22T08:21:14;17.90;99.90
18577;DHT22;9418;52.694;13.294;2023-04-22T08:23:40;18.10;99.90
18577;DHT22;9418;52.694;13.294;2023-04-22T08:26:07;18.20;99.90
18577;DHT22;9418;52.694;13.294;2023-04-22T08:28:37;18.50;99.90
18577;DHT22;9418;52.694;13.294;2023-04-22T08:31:05;18.80;99.90
18577;DHT22;9418;52.694;13.294;2023-04-22T08:33:35;18.70;99.90
18577;DHT22;9418;52.694;13.294;2023-04-22T08:36:01;18.70;99.90
18577;DHT22;9418;52.694;13.294;2023-04-22T08:38:28;18.50;99.90
18577;DHT22;9418;52.694;13.294;2023-04-22T08:40:55;18.50;99.90
18577;DHT22;9418;52.694;13.294;2023-04-22T08:43:24;19.20;99.90
18577;DHT22;9418;52.694;13.294;2023-04-22T08:45:51;20.20;99.90
18577;DHT22;9418;52.694;13.294;2023-04-22T08:48:18;21.00;99.90
18577;DHT22;9418;52.694;13.294;2023-04-22T08:50:46;21.70;99.90
18577;DHT22;9418;52.694;13.294;2023-04-22T08:53:13;22.30;99.90
18577;DHT22;9418;52.694;13.294;2023-04-22T08:55:43;22.40;99.90
18577;DHT22;9418;52.694;13.294;2023-04-22T08:58:10;22.20;99.90
18577;DHT22;9418;52.694;13.294;2023-04-22T09:00:38;21.70;99.90
18577;DHT22;9418;52.694;13.294;2023-04-22T09:03:05;22.00;99.90
18577;DHT22;9418;52.694;13.294;2023-04-22T09:05:33;22.20;99.90
18577;DHT22;9418;52.694;13.294;2023-04-22T09:08:03;21.40;99.90
18577;DHT22;9418;52.694;13.294;2023-04-22T09:10:29;21.20;99.90
18577;DHT22;9418;52.694;13.294;2023-04-22T09:12:57;21.60;99.90
18577;DHT22;9418;52.694;13.294;2023-04-22T09:15:24;21.50;99.90
18577;DHT22;9418;52.694;13.294;2023-04-22T09:17:52;22.10;99.90
18577;DHT22;9418;52.694;13.294;2023-04-22T09:20:24;22.40;99.90
18577;DHT22;9418;52.694;13.294;2023-04-22T09:22:52;22.30;99.90
18577;DHT22;9418;52.694;13.294;2023-04-22T09:25:21;22.80;99.90
18577;DHT22;9418;52.694;13.294;2023-04-22T09:27:48;23.40;99.90
18577;DHT22;9418;52.694;13.294;2023-04-22T09:30:16;24.10;99.90
18577;DHT22;9418;52.694;13.294;2023-04-22T09:32:51;23.80;99.90
18577;DHT22;9418;52.694;13.294;2023-04-22T09:35:23;23.40;99.90
18577;DHT22;9418;52.694;13.294;2023-04-22T09:37:51;23.70;99.90
18577;DHT22;9418;52.694;13.294;2023-04-22T09:40:20;23.30;99.90
18577;DHT22;9418;52.694;13.294;2023-04-22T09:42:47;23.60;99.90
18577;DHT22;9418;52.694;13.294;2023-04-22T09:45:24;24.10;99.90
18577;DHT22;9418;52.694;13.294;2023-04-22T09:47:51;24.30;99.90
18577;DHT22;9418;52.694;13.294;2023-04-22T09:50:19;24.90;99.90
18577;DHT22;9418;52.694;13.294;2023-04-22T09:52:53;24.80;99.90
18577;DHT22;9418;52.694;13.294;2023-04-22T09:55:22;24.60;99.90
18577;DHT22;9418;52.694;13.294;2023-04-22T09:57:51;23.90;99.90
18577;DHT22;9418;52.694;13.294;2023-04-22T10:00:18;23.20;99.90
18577;DHT22;9418;52.694;13.294;2023-04-22T10:02:44;24.20;99.90
18577;DHT22;9418;52.694;13.294;2023-04-22T10:05:11;25.00;99.90
18577;DHT22;9418;52.694;13.294;2023-04-22T10:07:38;24.90;99.90
18577;DHT22;9418;52.694;13.294;2023-04-22T10:10:06;24.60;99.90
18577;DHT22;9418;52.694;13.294;2023-04-22T10:12:35;24.90;99.90
18577;DHT22;9418;52.694;13.294;2023-04-22T10:15:02;23.80;99.90
18577;DHT22;9418;52.694;13.294;2023-04-22T10:17:30;24.70;99.90
18577;DHT22;9418;52.694;13.294;2023-04-22T10:19:59;26.00;99.90
18577;DHT22;9418;52.694;13.294;2023-04-22T10:22:28;25.10;99.90
18577;DHT22;9418;52.694;13.294;2023-04-22T10:24:55;24.90;99.90
18577;DHT22;9418;52.694;13.294;2023-04-22T10:27:22;24.30;99.90
18577;DHT22;9418;52.694;13.294;2023-04-22T10:29:50;24.60;99.90
18577;DHT22;9418;52.694;13.294;2023-04-22T10:32:24;24.10;99.90
18577;DHT22;9418;52.694;13.294;2023-04-22T10:35:07;23.30;99.90
18577;DHT22;9418;52.694;13.294;2023-04-22T10:37:34;23.90;99.90
18577;DHT22;9418;52.694;13.294;2023-04-22T10:40:09;24.30;99.90
18577;DHT22;9418;52.694;13.294;2023-04-22T10:42:38;24.10;99.90
18577;DHT22;9418;52.694;13.294;2023-04-22T10:45:11;24.30;99.90
18577;DHT22;9418;52.694;13.294;2023-04-22T10:47:38;23.80;99.90
18577;DHT22;9418;52.694;13.294;2023-04-22T10:50:21;24.20;99.90
18577;DHT22;9418;52.694;13.294;2023-04-22T10:52:50;23.90;99.90
18577;DHT22;9418;52.694;13.294;2023-04-22T10:55:16;24.00;99.90
18577;DHT22;9418;52.694;13.294;2023-04-22T10:57:44;24.10;99.90
18577;DHT22;9418;52.694;13.294;2023-04-22T11:00:28;24.10;99.90
18577;DHT22;9418;52.694;13.294;2023-04-22T11:03:10;24.70;99.90
18577;DHT22;9418;52.694;13.294;2023-04-22T11:05:37;24.50;99.90
18577;DHT22;9418;52.694;13.294;2023-04-22T11:08:06;23.90;99.90
18577;DHT22;9418;52.694;13.294;2023-04-22T11:10:35;23.70;99.90
18577;DHT22;9418;52.694;13.294;2023-04-22T11:13:05;23.40;99.90
18577;DHT22;9418;52.694;13.294;2023-04-22T11:15:36;23.80;99.90
18577;DHT22;9418;52.694;13.294;2023-04-22T11:18:13;23.50;99.90
18577;DHT22;9418;52.694;13.294;2023-04-22T11:20:39;24.60;93.70
18577;DHT22;9418;52.694;13.294;2023-04-22T11:23:06;24.70;86.80
18577;DHT22;9418;52.694;13.294;2023-04-22T11:25:33;24.40;76.80
18577;DHT22;9418;52.694;13.294;2023-04-22T11:27:59;24.30;98.60
18577;DHT22;9418;52.694;13.294;2023-04-22T11:30:27;23.50;99.90
18577;DHT22;9418;52.694;13.294;2023-04-22T11:32:58;23.30;99.90
18577;DHT22;9418;52.694;13.294;2023-04-22T11:35:27;23.00;99.90
18577;DHT22;9418;52.694;13.294;2023-04-22T11:37:55;23.50;99.90
18577;DHT22;9418;52.694;13.294;2023-04-22T11:40:23;23.50;99.90
18577;DHT22;9418;52.694;13.294;2023-04-22T11:42:51;23.20;99.90
18577;DHT22;9418;52.694;13.294;2023-04-22T11:45:19;23.50;99.90
18577;DHT22;9418;52.694;13.294;2023-04-22T11:47:46;23.50;99.90
18577;DHT22;9418;52.694;13.294;2023-04-22T11:50:16;23.80;98.10
18577;DHT22;9418;52.694;13.294;2023-04-22T11:52:46;23.50;94.20
18577;DHT22;9418;52.694;13.294;2023-04-22T11:55:14;23.50;99.00
18577;DHT22;9418;52.694;13.294;2023-04-22T11:57:43;23.70;94.50
18577;DHT22;9418;52.694;13.294;2023-04-22T12:00:12;23.20;91.90
18577;DHT22;9418;52.694;13.294;2023-04-22T12:02:39;23.90;85.50
18577;DHT22;9418;52.694;13.294;2023-04-22T12:05:08;23.20;88.20
18577;DHT22;9418;52.694;13.294;2023-04-22T12:07:38;23.90;99.90
18577;DHT22;9418;52.694;13.294;2023-04-22T12:10:06;24.60;94.00
18577;DHT22;9418;52.694;13.294;2023-04-22T12:12:33;24.70;82.90
18577;DHT22;9418;52.694;13.294;2023-04-22T12:15:07;25.40;99.90
18577;DHT22;9418;52.694;13.294;2023-04-22T12:17:33;25.10;72.30
18577;DHT22;9418;52.694;13.294;2023-04-22T12:20:00;24.60;22.30
18577;DHT22;9418;52.694;13.294;2023-04-22T12:22:27;24.90;21.10
18577;DHT22;9418;52.694;13.294;2023-04-22T12:24:58;24.50;20.60
18577;DHT22;9418;52.694;13.294;2023-04-22T12:27:25;24.70;21.00
18577;DHT22;9418;52.694;13.294;2023-04-22T12:29:53;24.10;23.20
18577;DHT22;9418;52.694;13.294;2023-04-22T12:32:21;24.30;22.50
18577;DHT22;9418;52.694;13.294;2023-04-22T12:34:48;24.10;22.60
18577;DHT22;9418;52.694;13.294;2023-04-22T12:37:15;24.30;21.70
18577;DHT22;9418;52.694;13.294;2023-04-22T12:39:42;24.30;21.00
18577;DHT22;9418;52.694;13.294;2023-04-22T12:42:10;24.80;74.70
18577;DHT22;9418;52.694;13.294;2023-04-22T12:44:36;25.20;23.40
18577;DHT22;9418;52.694;13.294;2023-04-22T12:47:03;25.00;23.50
18577;DHT22;9418;52.694;13.294;2023-04-22T12:49:30;24.20;23.80
18577;DHT22;9418;52.694;13.294;2023-04-22T12:51:56;24.40;21.50
18577;DHT22;9418;52.694;13.294;2023-04-22T12:54:23;24.60;22.20
18577;DHT22;9418;52.694;13.294;2023-04-22T12:56:50;24.40;23.70
18577;DHT22;9418;52.694;13.294;2023-04-22T12:59:18;24.40;23.40
18577;DHT22;9418;52.694;13.294;2023-04-22T13:01:45;24.40;21.50
18577;DHT22;9418;52.694;13.294;2023-04-22T13:04:11;24.60;21.50
18577;DHT22;9418;52.694;13.294;2023-04-22T13:06:38;24.80;23.20
18577;DHT22;9418;52.694;13.294;2023-04-22T13:09:06;24.70;22.50
18577;DHT22;9418;52.694;13.294;2023-04-22T13:11:32;24.80;21.30
18577;DHT22;9418;52.694;13.294;2023-04-22T13:13:59;24.80;24.50
18577;DHT22;9418;52.694;13.294;2023-04-22T13:16:27;25.30;23.90
18577;DHT22;9418;52.694;13.294;2023-04-22T13:18:53;24.50;25.20
18577;DHT22;9418;52.694;13.294;2023-04-22T13:21:20;24.90;24.20
18577;DHT22;9418;52.694;13.294;2023-04-22T13:23:46;25.20;26.50
18577;DHT22;9418;52.694;13.294;2023-04-22T13:26:13;25.90;28.10
18577;DHT22;9418;52.694;13.294;2023-04-22T13:28:40;26.00;27.50
18577;DHT22;9418;52.694;13.294;2023-04-22T13:31:06;25.90;26.70
18577;DHT22;9418;52.694;13.294;2023-04-22T13:33:36;25.70;26.40
18577;DHT22;9418;52.694;13.294;2023-04-22T13:36:02;25.20;24.80
18577;DHT22;9418;52.694;13.294;2023-04-22T13:38:29;25.40;26.00
18577;DHT22;9418;52.694;13.294;2023-04-22T13:40:56;25.70;24.70
18577;DHT22;9418;52.694;13.294;2023-04-22T13:43:22;26.40;28.30
18577;DHT22;9418;52.694;13.294;2023-04-22T13:45:49;26.60;29.20
18577;DHT22;9418;52.694;13.294;2023-04-22T13:48:16;27.00;27.50
18577;DHT22;9418;52.694;13.294;2023-04-22T13:50:44;25.90;30.60
18577;DHT22;9418;52.694;13.294;2023-04-22T13:53:11;26.00;30.10
18577;DHT22;9418;52.694;13.294;2023-04-22T13:55:38;25.70;29.70
18577;DHT22;9418;52.694;13.294;2023-04-22T13:58:05;25.30;27.50
18577;DHT22;9418;52.694;13.294;2023-04-22T14:00:32;25.50;27.10
18577;DHT22;9418;52.694;13.294;2023-04-22T14:02:59;25.30;27.60
18577;DHT22;9418;52.694;13.294;2023-04-22T14:05:26;25.30;27.90
18577;DHT22;9418;52.694;13.294;2023-04-22T14:07:54;25.60;27.60
18577;DHT22;9418;52.694;13.294;2023-04-22T14:10:21;25.60;29.10
18577;DHT22;9418;52.694;13.294;2023-04-22T14:12:48;25.00;28.80
18577;DHT22;9418;52.694;13.294;2023-04-22T14:15:15;25.30;27.60
18577;DHT22;9418;52.694;13.294;2023-04-22T14:17:42;25.50;29.00
18577;DHT22;9418;52.694;13.294;2023-04-22T14:20:14;25.50;27.80
18577;DHT22;9418;52.694;13.294;2023-04-22T14:22:40;25.80;28.70
18577;DHT22;9418;52.694;13.294;2023-04-22T14:25:09;26.30;28.10
18577;DHT22;9418;52.694;13.294;2023-04-22T14:27:36;25.80;28.90
18577;DHT22;9418;52.694;13.294;2023-04-22T14:30:03;26.20;27.00
18577;DHT22;9418;52.694;13.294;2023-04-22T14:32:31;26.20;29.70
18577;DHT22;9418;52.694;13.294;2023-04-22T14:34:57;26.00;26.10
18577;DHT22;9418;52.694;13.294;2023-04-22T14:37:24;25.80;27.10
18577;DHT22;9418;52.694;13.294;2023-04-22T14:39:51;25.50;26.30
18577;DHT22;9418;52.694;13.294;2023-04-22T14:42:19;24.90;22.50
18577;DHT22;9418;52.694;13.294;2023-04-22T14:44:45;25.10;25.40
18577;DHT22;9418;52.694;13.294;2023-04-22T14:47:12;25.80;22.50
18577;DHT22;9418;52.694;13.294;2023-04-22T14:49:39;26.00;24.90
18577;DHT22;9418;52.694;13.294;2023-04-22T14:52:05;25.80;24.80
18577;DHT22;9418;52.694;13.294;2023-04-22T14:54:32;25.60;23.60
18577;DHT22;9418;52.694;13.294;2023-04-22T14:56:59;25.50;22.20
18577;DHT22;9418;52.694;13.294;2023-04-22T14:59:27;25.70;24.10
18577;DHT22;9418;52.694;13.294;2023-04-22T15:01:54;25.90;21.50
18577;DHT22;9418;52.694;13.294;2023-04-22T15:04:20;26.20;23.20
18577;DHT22;9418;52.694;13.294;2023-04-22T15:06:47;25.70;24.80
18577;DHT22;9418;52.694;13.294;2023-04-22T15:09:13;24.90;24.00
18577;DHT22;9418;52.694;13.294;2023-04-22T15:11:40;25.40;24.50
18577;DHT22;9418;52.694;13.294;2023-04-22T15:14:07;25.40;24.60
18577;DHT22;9418;52.694;13.294;2023-04-22T15:16:35;25.50;25.20
18577;DHT22;9418;52.694;13.294;2023-04-22T15:19:01;25.90;24.80
18577;DHT22;9418;52.694;13.294;2023-04-22T15:21:28;26.30;25.00
18577;DHT22;9418;52.694;13.294;2023-04-22T15:23:54;26.20;26.30
18577;DHT22;9418;52.694;13.294;2023-04-22T15:26:21;26.50;27.20
18577;DHT22;9418;52.694;13.294;2023-04-22T15:28:47;26.20;26.00
18577;DHT22;9418;52.694;13.294;2023-04-22T15:31:15;26.40;25.00
18577;DHT22;9418;52.694;13.294;2023-04-22T15:33:43;26.50;26.40
18577;DHT22;9418;52.694;13.294;2023-04-22T15:36:10;26.10;26.10